sensor_id;sensor_type;location;lat;lon;timestamp;P1;durP1;ratioP1;P2;durP2;ratioP2
43807;SDS011;29438;50.664;10.098;2022-07-23T00:00:08;5.50;;;3.83;;
43807;SDS011;29438;50.664;10.098;2022-07-23T00:02:34;4.97;;;3.80;;
43807;SDS011;29438;50.664;10.098;2022-07-23T00:05:00;6.28;;;3.70;;
43807;SDS011;29438;50.664;10.098;2022-07-23T00:07:26;6.00;;;4.10;;
43807;SDS011;29438;50.664;10.098;2022-07-23T00:09:51;5.38;;;3.90;;
43807;SDS011;29438;50.664;10.098;2022-07-23T00:12:17;5.13;;;3.60;;
43807;SDS011;29438;50.664;10.098;2022-07-23T00:14:42;5.25;;;3.42;;
43807;SDS011;29438;50.664;10.098;2022-07-23T00:17:08;5.40;;;3.65;;
43807;SDS011;29438;50.664;10.098;2022-07-23T00:19:33;5.88;;;4.00;;
43807;SDS011;29438;50.664;10.098;2022-07-23T00:21:59;6.70;;;3.80;;
43807;SDS011;29438;50.664;10.098;2022-07-23T00:24:24;6.03;;;3.78;;
43807;SDS011;29438;50.664;10.098;2022-07-23T00:26:50;6.07;;;4.20;;
43807;SDS011;29438;50.664;10.098;2022-07-23T00:29:15;5.13;;;3.72;;
43807;SDS011;29438;50.664;10.098;2022-07-23T00:31:41;5.70;;;4.18;;
43807;SDS011;29438;50.664;10.098;2022-07-23T00:34:06;6.00;;;3.78;;
43807;SDS011;29438;50.664;10.098;2022-07-23T00:36:32;5.35;;;3.75;;
43807;SDS011;29438;50.664;10.098;2022-07-23T00:38:58;5.32;;;3.40;;
43807;SDS011;29438;50.664;10.098;2022-07-23T00:41:23;5.38;;;3.78;;
43807;SDS011;29438;50.664;10.098;2022-07-23T00:43:49;4.90;;;3.58;;
43807;SDS011;29438;50.664;10.098;2022-07-23T00:46:21;5.65;;;3.65;;
43807;SDS011;29438;50.664;10.098;2022-07-23T00:48:47;5.85;;;4.00;;
43807;SDS011;29438;50.664;10.098;2022-07-23T00:51:15;6.85;;;4.05;;
43807;SDS011;29438;50.664;10.098;2022-07-23T00:53:42;5.22;;;4.00;;
43807;SDS011;29438;50.664;10.098;2022-07-23T00:56:08;5.93;;;4.05;;
43807;SDS011;29438;50.664;10.098;2022-07-23T00:58:35;5.38;;;3.78;;
43807;SDS011;29438;50.664;10.098;2022-07-23T01:01:01;5.07;;;3.53;;
43807;SDS011;29438;50.664;10.098;2022-07-23T01:03:27;6.38;;;3.50;;
43807;SDS011;29438;50.664;10.098;2022-07-23T01:05:53;4.82;;;3.75;;
43807;SDS011;29438;50.664;10.098;2022-07-23T01:08:19;6.20;;;4.10;;
43807;SDS011;29438;50.664;10.098;2022-07-23T01:10:46;5.55;;;3.70;;
43807;SDS011;29438;50.664;10.098;2022-07-23T01:13:13;6.75;;;4.05;;
43807;SDS011;29438;50.664;10.098;2022-07-23T01:15:38;4.80;;;3.67;;
43807;SDS011;29438;50.664;10.098;2022-07-23T01:18:04;5.30;;;3.90;;
43807;SDS011;29438;50.664;10.098;2022-07-23T01:20:31;5.53;;;4.28;;
43807;SDS011;29438;50.664;10.098;2022-07-23T01:22:57;5.90;;;3.80;;
43807;SDS011;29438;50.664;10.098;2022-07-23T01:25:23;5.75;;;4.05;;
43807;SDS011;29438;50.664;10.098;2022-07-23T01:27:49;5.95;;;4.07;;
43807;SDS011;29438;50.664;10.098;2022-07-23T01:30:16;6.25;;;4.00;;
43807;SDS011;29438;50.664;10.098;2022-07-23T01:32:42;5.90;;;4.05;;
43807;SDS011;29438;50.664;10.098;2022-07-23T01:35:08;5.78;;;3.90;;
43807;SDS011;29438;50.664;10.098;2022-07-23T01:37:34;5.43;;;3.70;;
43807;SDS011;29438;50.664;10.098;2022-07-23T01:40:00;5.55;;;4.13;;
43807;SDS011;29438;50.664;10.098;2022-07-23T01:42:26;5.10;;;3.45;;
43807;SDS011;29438;50.664;10.098;2022-07-23T01:44:51;5.57;;;4.00;;
43807;SDS011;29438;50.664;10.098;2022-07-23T01:47:17;6.07;;;4.13;;
43807;SDS011;29438;50.664;10.098;2022-07-23T01:49:42;6.18;;;4.20;;
43807;SDS011;29438;50.664;10.098;2022-07-23T01:52:08;5.00;;;3.90;;
43807;SDS011;29438;50.664;10.098;2022-07-23T01:54:37;6.03;;;3.83;;
43807;SDS011;29438;50.664;10.098;2022-07-23T01:57:04;6.38;;;4.07;;
43807;SDS011;29438;50.664;10.098;2022-07-23T01:59:30;5.72;;;3.80;;
43807;SDS011;29438;50.664;10.098;2022-07-23T02:01:56;5.00;;;3.80;;
43807;SDS011;29438;50.664;10.098;2022-07-23T02:04:22;5.80;;;3.95;;
43807;SDS011;29438;50.664;10.098;2022-07-23T02:06:49;5.20;;;3.83;;
43807;SDS011;29438;50.664;10.098;2022-07-23T02:09:15;6.28;;;4.40;;
43807;SDS011;29438;50.664;10.098;2022-07-23T02:11:41;6.95;;;4.75;;
43807;SDS011;29438;50.664;10.098;2022-07-23T02:14:07;8.82;;;5.65;;
43807;SDS011;29438;50.664;10.098;2022-07-23T02:16:32;9.15;;;5.07;;
43807;SDS011;29438;50.664;10.098;2022-07-23T02:18:58;7.63;;;5.43;;
43807;SDS011;29438;50.664;10.098;2022-07-23T02:21:23;9.55;;;5.50;;
43807;SDS011;29438;50.664;10.098;2022-07-23T02:23:49;11.23;;;5.45;;
43807;SDS011;29438;50.664;10.098;2022-07-23T02:26:15;8.93;;;5.97;;
43807;SDS011;29438;50.664;10.098;2022-07-23T02:28:40;8.48;;;5.63;;
43807;SDS011;29438;50.664;10.098;2022-07-23T02:31:06;7.43;;;5.57;;
43807;SDS011;29438;50.664;10.098;2022-07-23T02:33:32;8.43;;;5.93;;
43807;SDS011;29438;50.664;10.098;2022-07-23T02:35:58;8.52;;;5.50;;
43807;SDS011;29438;50.664;10.098;2022-07-23T02:38:24;10.13;;;5.85;;
43807;SDS011;29438;50.664;10.098;2022-07-23T02:40:49;9.85;;;5.53;;
43807;SDS011;29438;50.664;10.098;2022-07-23T02:43:15;8.18;;;5.45;;
43807;SDS011;29438;50.664;10.098;2022-07-23T02:45:40;12.23;;;6.10;;
43807;SDS011;29438;50.664;10.098;2022-07-23T02:48:06;7.03;;;5.43;;
43807;SDS011;29438;50.664;10.098;2022-07-23T02:50:31;7.55;;;5.72;;
43807;SDS011;29438;50.664;10.098;2022-07-23T02:52:57;8.10;;;5.70;;
43807;SDS011;29438;50.664;10.098;2022-07-23T02:55:22;8.45;;;5.70;;
43807;SDS011;29438;50.664;10.098;2022-07-23T02:57:48;9.73;;;6.13;;
43807;SDS011;29438;50.664;10.098;2022-07-23T03:00:13;8.88;;;5.72;;
43807;SDS011;29438;50.664;10.098;2022-07-23T03:02:39;10.27;;;6.05;;
43807;SDS011;29438;50.664;10.098;2022-07-23T03:05:05;10.82;;;6.70;;
43807;SDS011;29438;50.664;10.098;2022-07-23T03:07:30;10.15;;;6.63;;
43807;SDS011;29438;50.664;10.098;2022-07-23T03:09:56;10.30;;;7.05;;
43807;SDS011;29438;50.664;10.098;2022-07-23T03:12:21;10.10;;;7.63;;
43807;SDS011;29438;50.664;10.098;2022-07-23T03:14:47;11.88;;;8.02;;
43807;SDS011;29438;50.664;10.098;2022-07-23T03:17:12;11.15;;;8.30;;
43807;SDS011;29438;50.664;10.098;2022-07-23T03:19:38;11.27;;;7.28;;
43807;SDS011;29438;50.664;10.098;2022-07-23T03:22:04;9.93;;;7.43;;
43807;SDS011;29438;50.664;10.098;2022-07-23T03:24:29;11.15;;;7.43;;
43807;SDS011;29438;50.664;10.098;2022-07-23T03:27:14;10.75;;;7.47;;
43807;SDS011;29438;50.664;10.098;2022-07-23T03:29:39;12.52;;;7.15;;
43807;SDS011;29438;50.664;10.098;2022-07-23T03:32:05;10.05;;;7.00;;
43807;SDS011;29438;50.664;10.098;2022-07-23T03:34:31;10.27;;;6.63;;
43807;SDS011;29438;50.664;10.098;2022-07-23T03:36:56;11.23;;;7.00;;
43807;SDS011;29438;50.664;10.098;2022-07-23T03:39:22;11.55;;;7.85;;
43807;SDS011;29438;50.664;10.098;2022-07-23T03:41:47;11.23;;;8.18;;
43807;SDS011;29438;50.664;10.098;2022-07-23T03:44:13;10.50;;;7.47;;
43807;SDS011;29438;50.664;10.098;2022-07-23T03:46:38;11.85;;;7.97;;
43807;SDS011;29438;50.664;10.098;2022-07-23T03:49:04;10.10;;;7.70;;
43807;SDS011;29438;50.664;10.098;2022-07-23T03:51:29;11.10;;;7.75;;
43807;SDS011;29438;50.664;10.098;2022-07-23T03:53:55;11.55;;;7.18;;
43807;SDS011;29438;50.664;10.098;2022-07-23T03:56:20;10.85;;;7.38;;
43807;SDS011;29438;50.664;10.098;2022-07-23T03:58:46;9.43;;;6.75;;
43807;SDS011;29438;50.664;10.098;2022-07-23T04:01:12;9.50;;;7.13;;
43807;SDS011;29438;50.664;10.098;2022-07-23T04:03:37;10.57;;;7.10;;
43807;SDS011;29438;50.664;10.098;2022-07-23T04:06:03;9.82;;;7.35;;
43807;SDS011;29438;50.664;10.098;2022-07-23T04:08:29;14.82;;;8.23;;
43807;SDS011;29438;50.664;10.098;2022-07-23T04:10:54;11.57;;;7.72;;
43807;SDS011;29438;50.664;10.098;2022-07-23T04:13:20;10.45;;;7.60;;
43807;SDS011;29438;50.664;10.098;2022-07-23T04:15:45;11.45;;;7.40;;
43807;SDS011;29438;50.664;10.098;2022-07-23T04:18:11;11.95;;;8.05;;
43807;SDS011;29438;50.664;10.098;2022-07-23T04:20:37;14.52;;;8.15;;
43807;SDS011;29438;50.664;10.098;2022-07-23T04:23:02;13.43;;;8.82;;
43807;SDS011;29438;50.664;10.098;2022-07-23T04:25:28;13.30;;;8.45;;
43807;SDS011;29438;50.664;10.098;2022-07-23T04:27:53;11.35;;;7.60;;
43807;SDS011;29438;50.664;10.098;2022-07-23T04:30:19;13.50;;;8.25;;
43807;SDS011;29438;50.664;10.098;2022-07-23T04:32:44;12.15;;;8.65;;
43807;SDS011;29438;50.664;10.098;2022-07-23T04:35:10;15.30;;;8.73;;
43807;SDS011;29438;50.664;10.098;2022-07-23T04:37:36;12.13;;;8.77;;
43807;SDS011;29438;50.664;10.098;2022-07-23T04:40:01;12.10;;;8.63;;
43807;SDS011;29438;50.664;10.098;2022-07-23T04:42:27;11.73;;;7.90;;
43807;SDS011;29438;50.664;10.098;2022-07-23T04:44:52;14.48;;;8.95;;
43807;SDS011;29438;50.664;10.098;2022-07-23T04:47:18;11.45;;;8.73;;
43807;SDS011;29438;50.664;10.098;2022-07-23T04:49:43;12.77;;;8.88;;
43807;SDS011;29438;50.664;10.098;2022-07-23T04:52:09;11.60;;;8.20;;
43807;SDS011;29438;50.664;10.098;2022-07-23T04:54:34;12.20;;;8.27;;
43807;SDS011;29438;50.664;10.098;2022-07-23T04:57:00;12.52;;;8.45;;
43807;SDS011;29438;50.664;10.098;2022-07-23T04:59:25;11.48;;;8.00;;
43807;SDS011;29438;50.664;10.098;2022-07-23T05:01:51;11.48;;;8.18;;
43807;SDS011;29438;50.664;10.098;2022-07-23T05:04:16;12.38;;;9.00;;
43807;SDS011;29438;50.664;10.098;2022-07-23T05:06:42;13.65;;;8.77;;
43807;SDS011;29438;50.664;10.098;2022-07-23T05:09:07;12.45;;;8.50;;
43807;SDS011;29438;50.664;10.098;2022-07-23T05:11:33;12.73;;;9.00;;
43807;SDS011;29438;50.664;10.098;2022-07-23T05:13:58;13.20;;;9.10;;
43807;SDS011;29438;50.664;10.098;2022-07-23T05:16:24;12.82;;;9.57;;
43807;SDS011;29438;50.664;10.098;2022-07-23T05:18:49;12.93;;;8.68;;
43807;SDS011;29438;50.664;10.098;2022-07-23T05:21:15;11.75;;;7.93;;
43807;SDS011;29438;50.664;10.098;2022-07-23T05:23:40;14.73;;;8.90;;
43807;SDS011;29438;50.664;10.098;2022-07-23T05:26:05;12.82;;;9.15;;
43807;SDS011;29438;50.664;10.098;2022-07-23T05:28:31;14.63;;;10.10;;
43807;SDS011;29438;50.664;10.098;2022-07-23T05:30:56;13.85;;;10.10;;
43807;SDS011;29438;50.664;10.098;2022-07-23T05:33:22;17.38;;;10.23;;
43807;SDS011;29438;50.664;10.098;2022-07-23T05:35:48;15.80;;;11.00;;
43807;SDS011;29438;50.664;10.098;2022-07-23T05:38:13;15.50;;;10.60;;
43807;SDS011;29438;50.664;10.098;2022-07-23T05:40:39;17.55;;;12.52;;
43807;SDS011;29438;50.664;10.098;2022-07-23T05:43:04;19.33;;;13.38;;
43807;SDS011;29438;50.664;10.098;2022-07-23T05:45:29;19.20;;;14.15;;
43807;SDS011;29438;50.664;10.098;2022-07-23T05:47:55;21.35;;;14.75;;
43807;SDS011;29438;50.664;10.098;2022-07-23T05:50:21;20.05;;;14.13;;
43807;SDS011;29438;50.664;10.098;2022-07-23T05:52:46;22.35;;;15.20;;
43807;SDS011;29438;50.664;10.098;2022-07-23T05:55:12;22.75;;;15.70;;
43807;SDS011;29438;50.664;10.098;2022-07-23T05:57:38;23.20;;;16.23;;
43807;SDS011;29438;50.664;10.098;2022-07-23T06:00:04;22.65;;;14.95;;
43807;SDS011;29438;50.664;10.098;2022-07-23T06:02:31;22.15;;;15.65;;
43807;SDS011;29438;50.664;10.098;2022-07-23T06:04:57;22.42;;;16.63;;
43807;SDS011;29438;50.664;10.098;2022-07-23T06:07:22;23.10;;;16.38;;
43807;SDS011;29438;50.664;10.098;2022-07-23T06:09:48;22.80;;;16.52;;
43807;SDS011;29438;50.664;10.098;2022-07-23T06:12:14;22.52;;;16.52;;
43807;SDS011;29438;50.664;10.098;2022-07-23T06:14:43;21.85;;;15.30;;
43807;SDS011;29438;50.664;10.098;2022-07-23T06:17:08;22.13;;;15.48;;
43807;SDS011;29438;50.664;10.098;2022-07-23T06:19:34;20.83;;;15.30;;
43807;SDS011;29438;50.664;10.098;2022-07-23T06:22:00;20.92;;;15.35;;
43807;SDS011;29438;50.664;10.098;2022-07-23T06:24:25;22.75;;;15.52;;
43807;SDS011;29438;50.664;10.098;2022-07-23T06:26:51;22.02;;;15.57;;
43807;SDS011;29438;50.664;10.098;2022-07-23T06:29:16;21.00;;;15.30;;
43807;SDS011;29438;50.664;10.098;2022-07-23T06:31:42;22.08;;;15.43;;
43807;SDS011;29438;50.664;10.098;2022-07-23T06:34:07;21.08;;;14.88;;
43807;SDS011;29438;50.664;10.098;2022-07-23T06:36:33;21.27;;;15.00;;
43807;SDS011;29438;50.664;10.098;2022-07-23T06:38:58;23.00;;;14.98;;
43807;SDS011;29438;50.664;10.098;2022-07-23T06:41:24;20.08;;;14.82;;
43807;SDS011;29438;50.664;10.098;2022-07-23T06:43:49;18.05;;;14.27;;
43807;SDS011;29438;50.664;10.098;2022-07-23T06:46:15;19.70;;;14.75;;
43807;SDS011;29438;50.664;10.098;2022-07-23T06:48:40;21.05;;;14.15;;
43807;SDS011;29438;50.664;10.098;2022-07-23T06:51:06;19.63;;;13.48;;
43807;SDS011;29438;50.664;10.098;2022-07-23T06:53:31;18.08;;;13.38;;
43807;SDS011;29438;50.664;10.098;2022-07-23T06:55:57;16.90;;;13.32;;
43807;SDS011;29438;50.664;10.098;2022-07-23T06:58:22;17.88;;;13.05;;
43807;SDS011;29438;50.664;10.098;2022-07-23T07:00:48;16.13;;;12.88;;
43807;SDS011;29438;50.664;10.098;2022-07-23T07:03:13;17.48;;;13.40;;
43807;SDS011;29438;50.664;10.098;2022-07-23T07:05:39;17.95;;;13.05;;
43807;SDS011;29438;50.664;10.098;2022-07-23T07:08:05;18.17;;;13.23;;
43807;SDS011;29438;50.664;10.098;2022-07-23T07:10:31;18.23;;;13.85;;
43807;SDS011;29438;50.664;10.098;2022-07-23T07:12:56;17.90;;;13.52;;
43807;SDS011;29438;50.664;10.098;2022-07-23T07:15:22;17.90;;;12.93;;
43807;SDS011;29438;50.664;10.098;2022-07-23T07:17:51;17.75;;;13.48;;
43807;SDS011;29438;50.664;10.098;2022-07-23T07:20:16;16.27;;;13.15;;
43807;SDS011;29438;50.664;10.098;2022-07-23T07:22:42;15.98;;;12.43;;
43807;SDS011;29438;50.664;10.098;2022-07-23T07:25:07;15.75;;;12.70;;
43807;SDS011;29438;50.664;10.098;2022-07-23T07:27:33;15.55;;;12.48;;
43807;SDS011;29438;50.664;10.098;2022-07-23T07:29:59;14.55;;;11.88;;
43807;SDS011;29438;50.664;10.098;2022-07-23T07:32:24;16.35;;;12.48;;
43807;SDS011;29438;50.664;10.098;2022-07-23T07:34:50;16.95;;;13.30;;
43807;SDS011;29438;50.664;10.098;2022-07-23T07:37:16;16.25;;;12.35;;
43807;SDS011;29438;50.664;10.098;2022-07-23T07:39:41;15.90;;;12.70;;
43807;SDS011;29438;50.664;10.098;2022-07-23T07:42:07;19.98;;;13.88;;
43807;SDS011;29438;50.664;10.098;2022-07-23T07:44:32;17.25;;;13.50;;
43807;SDS011;29438;50.664;10.098;2022-07-23T07:46:58;16.92;;;13.48;;
43807;SDS011;29438;50.664;10.098;2022-07-23T07:49:23;16.05;;;12.40;;
43807;SDS011;29438;50.664;10.098;2022-07-23T07:51:49;15.73;;;12.32;;
43807;SDS011;29438;50.664;10.098;2022-07-23T07:54:14;15.77;;;12.30;;
43807;SDS011;29438;50.664;10.098;2022-07-23T07:56:40;17.02;;;12.60;;
43807;SDS011;29438;50.664;10.098;2022-07-23T07:59:06;16.27;;;11.77;;
43807;SDS011;29438;50.664;10.098;2022-07-23T08:01:31;16.20;;;12.20;;
43807;SDS011;29438;50.664;10.098;2022-07-23T08:03:57;16.70;;;12.68;;
43807;SDS011;29438;50.664;10.098;2022-07-23T08:06:22;15.70;;;12.43;;
43807;SDS011;29438;50.664;10.098;2022-07-23T08:08:48;16.50;;;12.05;;
43807;SDS011;29438;50.664;10.098;2022-07-23T08:11:13;15.52;;;11.77;;
43807;SDS011;29438;50.664;10.098;2022-07-23T08:13:39;15.35;;;12.10;;
43807;SDS011;29438;50.664;10.098;2022-07-23T08:16:04;15.95;;;11.65;;
43807;SDS011;29438;50.664;10.098;2022-07-23T08:18:30;14.63;;;11.07;;
43807;SDS011;29438;50.664;10.098;2022-07-23T08:20:55;15.13;;;11.32;;
43807;SDS011;29438;50.664;10.098;2022-07-23T08:26:44;14.25;;;10.75;;
43807;SDS011;29438;50.664;10.098;2022-07-23T08:29:10;16.73;;;12.35;;
43807;SDS011;29438;50.664;10.098;2022-07-23T08:31:35;17.83;;;12.00;;
43807;SDS011;29438;50.664;10.098;2022-07-23T08:34:01;17.83;;;13.18;;
43807;SDS011;29438;50.664;10.098;2022-07-23T08:36:27;16.02;;;11.68;;
43807;SDS011;29438;50.664;10.098;2022-07-23T08:38:57;16.20;;;12.43;;
43807;SDS011;29438;50.664;10.098;2022-07-23T08:41:23;16.70;;;12.50;;
43807;SDS011;29438;50.664;10.098;2022-07-23T08:43:48;17.35;;;13.70;;
43807;SDS011;29438;50.664;10.098;2022-07-23T08:46:14;17.55;;;12.68;;
43807;SDS011;29438;50.664;10.098;2022-07-23T08:48:43;16.30;;;13.32;;
43807;SDS011;29438;50.664;10.098;2022-07-23T08:51:13;16.88;;;13.05;;
43807;SDS011;29438;50.664;10.098;2022-07-23T08:53:44;19.20;;;13.15;;
43807;SDS011;29438;50.664;10.098;2022-07-23T08:56:11;21.58;;;13.63;;
43807;SDS011;29438;50.664;10.098;2022-07-23T08:58:37;17.25;;;12.65;;
43807;SDS011;29438;50.664;10.098;2022-07-23T09:01:02;19.52;;;13.48;;
43807;SDS011;29438;50.664;10.098;2022-07-23T09:03:29;17.35;;;12.27;;
43807;SDS011;29438;50.664;10.098;2022-07-23T09:05:57;16.63;;;12.70;;
43807;SDS011;29438;50.664;10.098;2022-07-23T09:08:24;14.90;;;11.27;;
43807;SDS011;29438;50.664;10.098;2022-07-23T09:10:54;15.57;;;12.15;;
43807;SDS011;29438;50.664;10.098;2022-07-23T09:13:29;16.77;;;12.40;;
43807;SDS011;29438;50.664;10.098;2022-07-23T09:15:55;16.83;;;12.10;;
43807;SDS011;29438;50.664;10.098;2022-07-23T09:18:30;15.57;;;12.23;;
43807;SDS011;29438;50.664;10.098;2022-07-23T09:21:13;15.07;;;12.50;;
43807;SDS011;29438;50.664;10.098;2022-07-23T09:23:47;16.70;;;12.57;;
43807;SDS011;29438;50.664;10.098;2022-07-23T09:26:24;18.17;;;12.23;;
43807;SDS011;29438;50.664;10.098;2022-07-23T09:31:49;15.95;;;11.40;;
43807;SDS011;29438;50.664;10.098;2022-07-23T09:34:17;15.10;;;11.32;;
43807;SDS011;29438;50.664;10.098;2022-07-23T09:37:13;16.65;;;10.77;;
43807;SDS011;29438;50.664;10.098;2022-07-23T09:39:41;15.02;;;10.50;;
43807;SDS011;29438;50.664;10.098;2022-07-23T09:42:14;12.90;;;10.35;;
43807;SDS011;29438;50.664;10.098;2022-07-23T09:44:48;13.23;;;9.52;;
43807;SDS011;29438;50.664;10.098;2022-07-23T09:47:16;11.50;;;9.15;;
43807;SDS011;29438;50.664;10.098;2022-07-23T09:52:28;10.35;;;8.60;;
43807;SDS011;29438;50.664;10.098;2022-07-23T09:54:58;11.38;;;8.65;;
43807;SDS011;29438;50.664;10.098;2022-07-23T09:57:25;12.75;;;9.80;;
43807;SDS011;29438;50.664;10.098;2022-07-23T09:59:52;11.65;;;9.05;;
43807;SDS011;29438;50.664;10.098;2022-07-23T10:02:18;13.07;;;8.52;;
43807;SDS011;29438;50.664;10.098;2022-07-23T10:04:44;11.38;;;8.38;;
43807;SDS011;29438;50.664;10.098;2022-07-23T10:07:11;11.13;;;8.55;;
43807;SDS011;29438;50.664;10.098;2022-07-23T10:09:41;11.52;;;8.50;;
43807;SDS011;29438;50.664;10.098;2022-07-23T10:12:11;11.52;;;7.50;;
43807;SDS011;29438;50.664;10.098;2022-07-23T10:14:41;11.50;;;8.18;;
43807;SDS011;29438;50.664;10.098;2022-07-23T10:17:07;11.55;;;8.00;;
43807;SDS011;29438;50.664;10.098;2022-07-23T10:19:33;10.50;;;8.50;;
43807;SDS011;29438;50.664;10.098;2022-07-23T10:22:00;10.38;;;8.70;;
43807;SDS011;29438;50.664;10.098;2022-07-23T10:30:20;8.68;;;7.40;;
43807;SDS011;29438;50.664;10.098;2022-07-23T10:33:04;9.15;;;7.18;;
43807;SDS011;29438;50.664;10.098;2022-07-23T10:35:39;8.98;;;6.80;;
43807;SDS011;29438;50.664;10.098;2022-07-23T10:38:13;8.63;;;6.47;;
43807;SDS011;29438;50.664;10.098;2022-07-23T10:40:59;7.45;;;5.95;;
43807;SDS011;29438;50.664;10.098;2022-07-23T10:43:26;8.93;;;6.38;;
43807;SDS011;29438;50.664;10.098;2022-07-23T10:45:53;6.93;;;5.72;;
43807;SDS011;29438;50.664;10.098;2022-07-23T10:48:20;7.22;;;5.57;;
43807;SDS011;29438;50.664;10.098;2022-07-23T10:56:16;6.93;;;5.35;;
43807;SDS011;29438;50.664;10.098;2022-07-23T10:59:05;6.97;;;4.82;;
43807;SDS011;29438;50.664;10.098;2022-07-23T11:01:37;6.30;;;5.10;;
43807;SDS011;29438;50.664;10.098;2022-07-23T11:04:03;6.95;;;5.72;;
43807;SDS011;29438;50.664;10.098;2022-07-23T11:09:28;5.90;;;4.40;;
43807;SDS011;29438;50.664;10.098;2022-07-23T11:17:37;7.47;;;4.72;;
43807;SDS011;29438;50.664;10.098;2022-07-23T11:20:21;7.80;;;4.60;;
43807;SDS011;29438;50.664;10.098;2022-07-23T11:22:49;5.93;;;4.15;;
43807;SDS011;29438;50.664;10.098;2022-07-23T11:27:52;5.63;;;3.78;;
43807;SDS011;29438;50.664;10.098;2022-07-23T11:33:38;4.93;;;4.15;;
43807;SDS011;29438;50.664;10.098;2022-07-23T11:35:39;5.82;;;4.65;;
43807;SDS011;29438;50.664;10.098;2022-07-23T11:38:07;5.53;;;4.55;;
43807;SDS011;29438;50.664;10.098;2022-07-23T11:43:08;6.15;;;4.47;;
43807;SDS011;29438;50.664;10.098;2022-07-23T11:45:35;6.45;;;4.60;;
43807;SDS011;29438;50.664;10.098;2022-07-23T11:48:04;5.82;;;4.25;;
43807;SDS011;29438;50.664;10.098;2022-07-23T11:50:31;5.25;;;4.00;;
43807;SDS011;29438;50.664;10.098;2022-07-23T11:52:56;5.78;;;3.83;;
43807;SDS011;29438;50.664;10.098;2022-07-23T11:55:22;6.65;;;4.35;;
43807;SDS011;29438;50.664;10.098;2022-07-23T11:57:50;5.35;;;4.28;;
43807;SDS011;29438;50.664;10.098;2022-07-23T12:00:17;7.00;;;4.75;;
43807;SDS011;29438;50.664;10.098;2022-07-23T12:02:46;5.60;;;4.10;;
43807;SDS011;29438;50.664;10.098;2022-07-23T12:05:22;7.00;;;4.63;;
43807;SDS011;29438;50.664;10.098;2022-07-23T12:07:51;6.70;;;4.20;;
43807;SDS011;29438;50.664;10.098;2022-07-23T12:10:22;5.97;;;4.38;;
43807;SDS011;29438;50.664;10.098;2022-07-23T12:12:56;5.38;;;4.03;;
43807;SDS011;29438;50.664;10.098;2022-07-23T12:15:37;6.70;;;4.20;;
43807;SDS011;29438;50.664;10.098;2022-07-23T12:18:04;5.63;;;4.10;;
43807;SDS011;29438;50.664;10.098;2022-07-23T12:20:34;5.72;;;4.40;;
43807;SDS011;29438;50.664;10.098;2022-07-23T12:23:06;6.03;;;4.53;;
43807;SDS011;29438;50.664;10.098;2022-07-23T12:25:33;4.50;;;3.70;;
43807;SDS011;29438;50.664;10.098;2022-07-23T12:28:08;5.25;;;4.22;;
43807;SDS011;29438;50.664;10.098;2022-07-23T12:30:40;5.25;;;4.30;;
43807;SDS011;29438;50.664;10.098;2022-07-23T12:33:08;5.40;;;4.18;;
43807;SDS011;29438;50.664;10.098;2022-07-23T12:35:37;4.45;;;3.80;;
43807;SDS011;29438;50.664;10.098;2022-07-23T12:38:10;5.93;;;3.90;;
43807;SDS011;29438;50.664;10.098;2022-07-23T12:40:42;4.47;;;3.88;;
43807;SDS011;29438;50.664;10.098;2022-07-23T12:46:07;5.45;;;4.15;;
43807;SDS011;29438;50.664;10.098;2022-07-23T12:51:26;7.25;;;4.22;;
43807;SDS011;29438;50.664;10.098;2022-07-23T12:53:55;5.70;;;4.30;;
43807;SDS011;29438;50.664;10.098;2022-07-23T12:56:29;5.32;;;4.65;;
43807;SDS011;29438;50.664;10.098;2022-07-23T12:58:58;4.90;;;3.83;;
43807;SDS011;29438;50.664;10.098;2022-07-23T13:01:32;5.55;;;4.40;;
43807;SDS011;29438;50.664;10.098;2022-07-23T13:04:03;5.13;;;4.30;;
43807;SDS011;29438;50.664;10.098;2022-07-23T13:06:30;6.20;;;4.07;;
43807;SDS011;29438;50.664;10.098;2022-07-23T13:09:00;5.25;;;4.05;;
43807;SDS011;29438;50.664;10.098;2022-07-23T13:11:27;5.13;;;3.80;;
43807;SDS011;29438;50.664;10.098;2022-07-23T13:13:52;9.70;;;4.00;;
43807;SDS011;29438;50.664;10.098;2022-07-23T13:16:18;4.97;;;4.03;;
43807;SDS011;29438;50.664;10.098;2022-07-23T13:18:44;4.60;;;3.42;;
43807;SDS011;29438;50.664;10.098;2022-07-23T13:21:09;4.78;;;3.83;;
43807;SDS011;29438;50.664;10.098;2022-07-23T13:23:35;4.32;;;3.92;;
43807;SDS011;29438;50.664;10.098;2022-07-23T13:26:01;5.40;;;3.97;;
43807;SDS011;29438;50.664;10.098;2022-07-23T13:28:27;5.57;;;3.85;;
43807;SDS011;29438;50.664;10.098;2022-07-23T13:30:53;6.35;;;3.90;;
43807;SDS011;29438;50.664;10.098;2022-07-23T13:33:19;4.53;;;3.58;;
43807;SDS011;29438;50.664;10.098;2022-07-23T13:35:46;4.78;;;3.47;;
43807;SDS011;29438;50.664;10.098;2022-07-23T13:38:13;4.90;;;3.38;;
43807;SDS011;29438;50.664;10.098;2022-07-23T13:40:39;3.97;;;3.55;;
43807;SDS011;29438;50.664;10.098;2022-07-23T13:43:07;5.65;;;4.00;;
43807;SDS011;29438;50.664;10.098;2022-07-23T13:45:34;4.72;;;3.58;;
43807;SDS011;29438;50.664;10.098;2022-07-23T13:48:00;5.63;;;3.60;;
43807;SDS011;29438;50.664;10.098;2022-07-23T13:50:25;4.22;;;3.35;;
43807;SDS011;29438;50.664;10.098;2022-07-23T13:52:51;6.90;;;3.58;;
43807;SDS011;29438;50.664;10.098;2022-07-23T13:55:16;4.70;;;3.20;;
43807;SDS011;29438;50.664;10.098;2022-07-23T13:57:42;4.30;;;3.45;;
43807;SDS011;29438;50.664;10.098;2022-07-23T14:00:08;9.43;;;3.40;;
43807;SDS011;29438;50.664;10.098;2022-07-23T14:02:36;4.10;;;3.22;;
43807;SDS011;29438;50.664;10.098;2022-07-23T14:05:04;4.65;;;3.30;;
43807;SDS011;29438;50.664;10.098;2022-07-23T14:07:31;4.70;;;3.03;;
43807;SDS011;29438;50.664;10.098;2022-07-23T14:09:57;4.88;;;3.20;;
43807;SDS011;29438;50.664;10.098;2022-07-23T14:12:22;4.13;;;3.20;;
43807;SDS011;29438;50.664;10.098;2022-07-23T14:14:48;4.47;;;3.47;;
43807;SDS011;29438;50.664;10.098;2022-07-23T14:17:13;4.80;;;3.30;;
43807;SDS011;29438;50.664;10.098;2022-07-23T14:19:39;5.15;;;3.13;;
43807;SDS011;29438;50.664;10.098;2022-07-23T14:22:04;4.53;;;3.30;;
43807;SDS011;29438;50.664;10.098;2022-07-23T14:24:30;5.40;;;3.53;;
43807;SDS011;29438;50.664;10.098;2022-07-23T14:26:55;4.43;;;3.17;;
43807;SDS011;29438;50.664;10.098;2022-07-23T14:29:21;3.65;;;3.17;;
43807;SDS011;29438;50.664;10.098;2022-07-23T14:31:46;4.30;;;3.05;;
43807;SDS011;29438;50.664;10.098;2022-07-23T14:34:14;5.25;;;3.10;;
43807;SDS011;29438;50.664;10.098;2022-07-23T14:36:40;6.03;;;3.50;;
43807;SDS011;29438;50.664;10.098;2022-07-23T14:39:05;4.97;;;3.60;;
43807;SDS011;29438;50.664;10.098;2022-07-23T14:41:33;4.55;;;3.55;;
43807;SDS011;29438;50.664;10.098;2022-07-23T14:43:59;4.57;;;3.55;;
43807;SDS011;29438;50.664;10.098;2022-07-23T14:46:24;4.80;;;3.65;;
43807;SDS011;29438;50.664;10.098;2022-07-23T14:48:51;5.68;;;3.85;;
43807;SDS011;29438;50.664;10.098;2022-07-23T14:51:17;4.53;;;3.72;;
43807;SDS011;29438;50.664;10.098;2022-07-23T14:53:42;5.22;;;3.55;;
43807;SDS011;29438;50.664;10.098;2022-07-23T14:56:08;5.28;;;3.55;;
43807;SDS011;29438;50.664;10.098;2022-07-23T14:58:34;4.50;;;3.55;;
43807;SDS011;29438;50.664;10.098;2022-07-23T15:01:00;4.00;;;3.30;;
43807;SDS011;29438;50.664;10.098;2022-07-23T15:03:25;5.28;;;3.20;;